Search for airport 
image banner adimage banner adimage banner ad
image banner ad

CA24 - Scripps Memorial Hospital La Jolla

Located in La Jolla, United States

ICAO - CA24, IATA -

Data provided by Airmate  

General information

Coordinates: N32°53'11" W117°13'32"
Elevation is 340 feet MSL.
 
View others Airports in California

Operational data

Special qualification required
Current time UTC:
Current local time:
Weather at : KNKX - Miramar Mcas ( 8 km )
METAR: KNKX 212255Z 31010KT 10SM CLR 28/13 A3002 RMK AO2 SLP159 T02830133
TAF: TAF KNKX 2121/2221 30008KT 9999 SKC QNH3000INS FM220130 VRB05KT 9999 SKC QNH3002INS TEMPO 2203/2209 FEW010 FM221930 30008KT 9999 SKC QNH2999INS T34/2122Z T18/2213Z
View NOTAMs / SUP AIP / TFR affecting this airport [VIEW]
Communications frequencies: [VIEW]

Runways:

Airport contact information

Address: La Jolla United States

Satellite view of CA24